Shannon, Illinois
Current Conditions -  °F | °C
As of 7:15 PM on Sunday 21 Dec 2014 (Local Time) from KFEP Reporting Station
Overcast Overcast  
Wind Chill: 24°   Ceiling: 3600
Heat Index: 34°   Visibility: 7mi
Dew Point: 30°   Wind: 15mph
Humidity: 87%   Direction: 150°SSE
Pressure: 30"   Gusts: 18mph
Location:  42.15°N, 89.74°W
Report Text: KFEP 220115Z AUTO 15013G16KT 7SM OVC036 01/M01 A3000 RMK AO2 T00101009
Loading
Personal Weather Stations






























Interactive Weather Map New forecast layout! Learn more

10-Day Weather Forecast

Advertisements
Track Severe Weather on mobile